Time;durP1;ratioP1;P1;durP2;ratioP2;P2;SDS_P1;SDS_P2;PMS_P1;PMS_P2;Temp;Humidity;BMP_temperature;BMP_pressure;BME280_temperature;BME280_humidity;BME280_pressure;Samples;Min_cycle;Max_cycle;Signal;HPM_P1;HPM_P2
2024/01/24 00:00:05;;;;;;;4.50;1.83;;;;;;;11.86;100.00;101304.28;5070692;28;20036;-74
2024/01/24 00:02:30;;;;;;;3.28;1.73;;;;;;;11.83;100.00;101304.63;5069159;28;20073;-74
2024/01/24 00:04:56;;;;;;;3.30;1.55;;;;;;;11.85;100.00;101291.91;5070324;28;20041;-74
2024/01/24 00:07:21;;;;;;;4.00;1.92;;;;;;;11.85;100.00;101282.03;5070566;28;20035;-75
2024/01/24 00:09:46;;;;;;;2.00;1.77;;;;;;;11.90;100.00;101286.03;5070585;28;20028;-74
2024/01/24 00:12:12;;;;;;;4.53;1.55;;;;;;;11.95;100.00;101291.63;5070265;28;20029;-74
2024/01/24 00:14:37;;;;;;;3.25;1.60;;;;;;;11.97;100.00;101297.56;5070404;28;20119;-74
2024/01/24 00:17:03;;;;;;;5.82;1.63;;;;;;;12.03;100.00;101286.13;5070268;28;20044;-74
2024/01/24 00:19:28;;;;;;;6.03;1.90;;;;;;;12.05;100.00;101300.09;5070323;28;20029;-74
2024/01/24 00:21:54;;;;;;;1.70;1.50;;;;;;;12.01;100.00;101299.66;5070410;28;20067;-74
2024/01/24 00:24:20;;;;;;;3.97;1.80;;;;;;;12.02;100.00;101311.19;5068856;28;20043;-74
2024/01/24 00:26:45;;;;;;;2.70;1.95;;;;;;;12.06;100.00;101302.56;5070153;28;20044;-75
2024/01/24 00:29:10;;;;;;;2.00;1.50;;;;;;;12.04;100.00;101287.75;5070153;28;20039;-74
2024/01/24 00:31:36;;;;;;;2.60;1.70;;;;;;;12.07;100.00;101284.69;5068222;28;20028;-74
2024/01/24 00:34:01;;;;;;;5.28;1.45;;;;;;;12.10;100.00;101276.25;5068808;28;20059;-74
2024/01/24 00:36:26;;;;;;;3.00;1.40;;;;;;;12.12;100.00;101268.88;5069976;28;20057;-75
2024/01/24 00:38:52;;;;;;;2.65;0.90;;;;;;;12.12;100.00;101276.09;5070076;28;20024;-75
2024/01/24 00:41:17;;;;;;;2.33;1.30;;;;;;;12.06;100.00;101265.16;5070010;28;20025;-74
2024/01/24 00:43:42;;;;;;;2.30;1.20;;;;;;;12.09;100.00;101279.97;5069880;28;20024;-74
2024/01/24 00:46:08;;;;;;;2.75;1.20;;;;;;;12.22;100.00;101288.06;5068459;28;20076;-74
2024/01/24 00:48:33;;;;;;;3.47;1.88;;;;;;;12.25;100.00;101279.66;5069859;28;20097;-74
2024/01/24 00:50:59;;;;;;;2.42;1.40;;;;;;;12.23;100.00;101271.00;5069645;28;20667;-74
2024/01/24 00:53:26;;;;;;;4.20;1.35;;;;;;;12.31;100.00;101271.88;5069916;28;20040;-74
2024/01/24 00:55:51;;;;;;;3.42;1.25;;;;;;;12.31;100.00;101287.91;5068422;28;20029;-74
2024/01/24 00:58:17;;;;;;;2.20;1.65;;;;;;;12.33;100.00;101276.00;5069736;28;20399;-74
2024/01/24 01:00:42;;;;;;;1.30;1.10;;;;;;;12.31;100.00;101269.19;5069791;28;20036;-74
2024/01/24 01:03:08;;;;;;;1.63;1.38;;;;;;;12.22;100.00;101279.22;5069562;28;20056;-74
2024/01/24 01:05:33;;;;;;;1.58;1.15;;;;;;;12.22;100.00;101268.53;5069711;28;20033;-75
2024/01/24 01:07:59;;;;;;;1.85;1.30;;;;;;;12.16;100.00;101274.69;5069458;28;20391;-74
2024/01/24 01:10:24;;;;;;;4.05;1.08;;;;;;;12.09;100.00;101261.25;5069591;28;20064;-74
2024/01/24 01:12:50;;;;;;;1.42;1.00;;;;;;;12.00;100.00;101286.50;5069528;28;20062;-74
2024/01/24 01:15:15;;;;;;;1.52;1.35;;;;;;;11.97;100.00;101254.78;5069617;28;20040;-74
2024/01/24 01:17:41;;;;;;;2.17;1.55;;;;;;;11.87;100.00;101268.53;5068281;28;20052;-75
2024/01/24 01:20:09;;;;;;;2.20;1.42;;;;;;;11.83;100.00;101261.88;5069512;28;20392;-75
2024/01/24 01:22:34;;;;;;;1.30;1.20;;;;;;;11.78;100.00;101250.94;5069570;28;20464;-74
2024/01/24 01:24:59;;;;;;;3.95;1.55;;;;;;;11.78;100.00;101249.09;5068273;28;20124;-74
2024/01/24 01:27:25;;;;;;;1.98;1.33;;;;;;;11.74;100.00;101258.53;5069791;28;20041;-74
2024/01/24 01:29:50;;;;;;;3.42;1.77;;;;;;;11.78;100.00;101256.28;5069499;28;20384;-74
2024/01/24 01:32:16;;;;;;;2.50;1.52;;;;;;;11.79;100.00;101258.78;5069343;28;20031;-74
2024/01/24 01:34:41;;;;;;;3.17;1.98;;;;;;;11.79;100.00;101258.78;5069517;28;20651;-74
2024/01/24 01:37:07;;;;;;;1.85;1.27;;;;;;;11.79;100.00;101242.75;5068994;28;20052;-74
2024/01/24 01:39:32;;;;;;;3.75;1.52;;;;;;;11.76;100.00;101255.66;5069413;28;20043;-75
2024/01/24 01:41:58;;;;;;;4.10;1.50;;;;;;;11.77;100.00;101255.47;5069322;28;20078;-74
2024/01/24 01:44:23;;;;;;;4.35;1.42;;;;;;;11.81;100.00;101272.75;5070960;28;20107;-74
2024/01/24 01:46:51;;;;;;;3.05;1.27;;;;;;;11.78;100.00;101258.97;5073357;28;20499;-75
2024/01/24 01:49:16;;;;;;;4.03;1.75;;;;;;;11.74;100.00;101269.22;5073135;28;20033;-74
2024/01/24 01:51:42;;;;;;;2.83;1.08;;;;;;;11.75;100.00;101272.72;5073134;28;20973;-75
2024/01/24 01:54:08;;;;;;;1.35;1.23;;;;;;;11.68;100.00;101266.47;5071779;28;20480;-74
2024/01/24 01:56:34;;;;;;;2.85;1.23;;;;;;;11.65;100.00;101258.88;5073114;28;20033;-74
2024/01/24 01:59:00;;;;;;;3.00;1.30;;;;;;;11.63;100.00;101272.41;5071727;28;20037;-74
2024/01/24 02:01:25;;;;;;;1.63;1.40;;;;;;;11.52;100.00;101275.59;5072863;28;20025;-74
2024/01/24 02:03:51;;;;;;;1.00;0.90;;;;;;;11.49;100.00;101267.97;5072835;28;20062;-74
2024/01/24 02:06:16;;;;;;;2.40;1.45;;;;;;;11.41;100.00;101269.75;5071560;28;20039;-74
2024/01/24 02:08:43;;;;;;;1.52;1.20;;;;;;;11.37;100.00;101252.47;5072871;28;20067;-75
2024/01/24 02:11:09;;;;;;;2.20;1.30;;;;;;;11.34;100.00;101250.19;5071422;28;20032;-74
2024/01/24 02:13:34;;;;;;;1.38;1.30;;;;;;;11.31;100.00;101253.22;5072770;28;20074;-74
2024/01/24 02:16:00;;;;;;;1.45;1.40;;;;;;;11.27;100.00;101241.28;5072787;28;20395;-75
2024/01/24 02:18:26;;;;;;;0.98;0.98;;;;;;;11.26;100.00;101254.81;5072619;28;20063;-74
2024/01/24 02:20:51;;;;;;;1.95;1.08;;;;;;;11.24;100.00;101260.38;5072696;28;20025;-74
2024/01/24 02:23:23;;;;;;;1.30;1.17;;;;;;;11.19;100.00;101250.25;5072683;28;20036;-75
2024/01/24 02:25:49;;;;;;;4.40;1.27;;;;;;;11.14;100.00;101238.50;5072202;28;20116;-74
2024/01/24 02:28:15;;;;;;;1.23;1.00;;;;;;;11.15;100.00;101238.28;5072554;28;20134;-74
2024/01/24 02:30:40;;;;;;;1.67;1.10;;;;;;;11.13;100.00;101243.03;5072484;28;20105;-74
2024/01/24 02:33:06;;;;;;;0.95;0.77;;;;;;;11.12;100.00;101235.19;5071020;28;20115;-74
2024/01/24 02:35:31;;;;;;;1.23;0.90;;;;;;;11.04;100.00;101232.66;5054210;28;20086;-74
2024/01/24 02:37:56;;;;;;;0.90;0.90;;;;;;;11.04;100.00;101233.47;5072057;28;20106;-74
2024/01/24 02:40:22;;;;;;;0.90;0.85;;;;;;;11.06;100.00;101246.63;5072234;28;20483;-75
2024/01/24 02:42:47;;;;;;;1.27;0.82;;;;;;;11.05;100.00;101263.66;5070957;28;20391;-74
2024/01/24 02:45:12;;;;;;;0.70;0.65;;;;;;;11.05;100.00;101279.66;5072260;28;20020;-74
2024/01/24 02:47:38;;;;;;;0.70;0.70;;;;;;;11.06;100.00;101263.47;5072195;28;20064;-74
2024/01/24 02:50:04;;;;;;;2.42;0.65;;;;;;;11.05;100.00;101256.47;5072175;28;20455;-74
2024/01/24 02:52:30;;;;;;;2.47;0.88;;;;;;;11.06;100.00;101242.13;5071989;28;20098;-74
2024/01/24 02:54:55;;;;;;;1.63;0.80;;;;;;;11.11;100.00;101250.38;5071708;28;20488;-74
2024/01/24 02:57:21;;;;;;;0.68;0.68;;;;;;;11.08;100.00;101253.44;5071915;28;20413;-74
2024/01/24 02:59:46;;;;;;;0.70;0.70;;;;;;;11.14;100.00;101250.00;5071933;28;20361;-74
2024/01/24 03:02:11;;;;;;;2.58;0.80;;;;;;;11.14;100.00;101217.97;5070498;28;20041;-74
2024/01/24 03:04:37;;;;;;;0.65;0.65;;;;;;;11.15;100.00;101240.16;5071888;28;20028;-74
2024/01/24 03:07:03;;;;;;;1.80;0.85;;;;;;;11.19;100.00;101242.25;5071798;28;20479;-74
2024/01/24 03:09:28;;;;;;;1.20;1.05;;;;;;;11.16;100.00;101242.63;5071759;28;20050;-74
2024/01/24 03:11:53;;;;;;;1.33;1.23;;;;;;;11.18;100.00;101231.75;5070155;28;20032;-74
2024/01/24 03:14:19;;;;;;;1.08;0.98;;;;;;;11.23;100.00;101252.53;5071339;28;20094;-74
2024/01/24 03:16:45;;;;;;;1.70;1.20;;;;;;;11.24;100.00;101243.50;5071715;28;20111;-74
2024/01/24 03:19:10;;;;;;;4.82;1.45;;;;;;;11.21;100.00;101247.38;5071278;28;20458;-74
2024/01/24 03:21:35;;;;;;;1.77;1.50;;;;;;;11.24;100.00;101248.84;5071480;28;20630;-74
2024/01/24 03:24:01;;;;;;;1.67;1.58;;;;;;;11.28;100.00;101234.94;5071532;28;20701;-74
2024/01/24 03:26:26;;;;;;;2.67;1.55;;;;;;;11.24;100.00;101256.84;5071307;28;20115;-74
2024/01/24 03:28:52;;;;;;;2.08;1.92;;;;;;;11.30;100.00;101256.09;5071299;28;20085;-74
2024/01/24 03:31:17;;;;;;;1.40;1.30;;;;;;;11.30;100.00;101267.59;5071315;28;20016;-75
2024/01/24 03:33:42;;;;;;;1.85;1.58;;;;;;;11.33;100.00;101287.78;5071352;28;20040;-74
2024/01/24 03:36:08;;;;;;;1.92;1.63;;;;;;;11.33;100.00;101288.59;5071071;28;20075;-74
2024/01/24 03:38:34;;;;;;;3.03;1.73;;;;;;;11.37;100.00;101297.88;5071255;28;20025;-74
2024/01/24 03:40:59;;;;;;;3.00;2.67;;;;;;;11.45;100.00;101310.28;5070978;28;20036;-74
2024/01/24 03:43:25;;;;;;;1.83;1.55;;;;;;;11.45;100.00;101290.75;5071067;28;20068;-73
2024/01/24 03:45:50;;;;;;;1.70;1.50;;;;;;;11.46;100.00;101316.44;5070925;28;20035;-74
2024/01/24 03:48:15;;;;;;;3.58;1.83;;;;;;;11.48;100.00;101322.44;5069765;28;20029;-74
2024/01/24 03:50:41;;;;;;;3.72;2.45;;;;;;;11.50;100.00;101339.91;5069665;28;20129;-74
2024/01/24 03:53:06;;;;;;;2.80;1.30;;;;;;;11.54;100.00;101327.00;5069645;28;20029;-74
2024/01/24 03:55:32;;;;;;;2.00;1.63;;;;;;;11.54;100.00;101330.50;5070785;28;20075;-74
2024/01/24 03:57:57;;;;;;;4.15;1.38;;;;;;;11.50;100.00;101323.03;5069401;28;20028;-74
2024/01/24 04:00:27;;;;;;;3.50;1.60;;;;;;;11.54;100.00;101333.16;5070656;28;20028;-74
2024/01/24 04:02:52;;;;;;;2.92;1.65;;;;;;;11.57;100.00;101315.94;5069379;28;20488;-74
2024/01/24 04:05:18;;;;;;;5.68;1.00;;;;;;;11.49;100.00;101332.09;5070201;28;20028;-74
2024/01/24 04:07:44;;;;;;;2.63;1.27;;;;;;;11.56;100.00;101327.66;5069964;28;20035;-74
2024/01/24 04:10:09;;;;;;;3.72;1.20;;;;;;;11.55;100.00;101291.25;5070351;28;20039;-73
2024/01/24 04:12:34;;;;;;;3.55;1.20;;;;;;;11.57;100.00;101287.34;5070374;28;20017;-74
2024/01/24 04:15:00;;;;;;;4.05;1.40;;;;;;;11.56;100.00;101316.97;5070362;28;20055;-74
2024/01/24 04:17:25;;;;;;;7.45;1.45;;;;;;;11.58;100.00;101309.56;5070434;28;20056;-74
2024/01/24 04:19:51;;;;;;;7.57;1.40;;;;;;;11.56;100.00;101317.78;5069050;28;20131;-74
2024/01/24 04:22:16;;;;;;;6.47;1.73;;;;;;;11.55;100.00;101291.25;5070396;28;20056;-73
2024/01/24 04:24:45;;;;;;;14.60;2.83;;;;;;;11.59;100.00;101329.94;5070223;28;20066;-74
2024/01/24 04:27:10;;;;;;;8.15;3.25;;;;;;;11.56;100.00;101325.78;5070444;28;20043;-74
2024/01/24 04:29:36;;;;;;;7.15;2.03;;;;;;;11.51;100.00;101340.75;5070151;28;20032;-74
2024/01/24 04:32:01;;;;;;;8.40;2.25;;;;;;;11.48;100.00;101375.84;5069958;28;20032;-74
2024/01/24 04:34:26;;;;;;;8.80;1.60;;;;;;;11.46;100.00;101392.06;5070188;28;20059;-74
2024/01/24 04:36:54;;;;;;;8.77;1.92;;;;;;;11.47;100.00;101358.97;5069493;28;20048;-74
2024/01/24 04:39:20;;;;;;;6.30;2.00;;;;;;;11.42;100.00;101369.41;5069980;28;20067;-74
2024/01/24 04:41:45;;;;;;;16.70;3.90;;;;;;;11.41;100.00;101355.22;5069957;28;20024;-74
2024/01/24 04:44:11;;;;;;;10.23;2.92;;;;;;;11.38;100.00;101376.97;5069991;28;20033;-74
2024/01/24 04:46:36;;;;;;;10.75;2.10;;;;;;;11.41;100.00;101373.91;5068671;28;20495;-74
2024/01/24 04:49:02;;;;;;;14.55;3.28;;;;;;;11.36;100.00;101379.00;5068594;28;20454;-74
2024/01/24 04:51:28;;;;;;;10.77;2.08;;;;;;;11.35;100.00;101382.69;5069891;28;20024;-74
2024/01/24 04:53:53;;;;;;;13.98;3.45;;;;;;;11.36;100.00;101394.19;5069732;28;20367;-74
2024/01/24 04:56:18;;;;;;;18.08;3.63;;;;;;;11.30;100.00;101395.78;5069949;28;20032;-74
2024/01/24 04:58:44;;;;;;;14.68;2.88;;;;;;;11.16;100.00;101386.81;5069588;28;20040;-74
2024/01/24 05:01:11;;;;;;;10.65;2.30;;;;;;;11.21;100.00;101372.88;5069806;28;20491;-75
2024/01/24 05:03:36;;;;;;;14.93;2.13;;;;;;;11.21;100.00;101388.06;5069752;28;20055;-75
2024/01/24 05:06:02;;;;;;;8.50;2.22;;;;;;;11.12;100.00;101404.19;5069717;28;20029;-74
2024/01/24 05:08:28;;;;;;;12.40;2.78;;;;;;;11.11;100.00;101413.22;5069695;28;20115;-74
2024/01/24 05:10:53;;;;;;;15.85;2.72;;;;;;;11.14;100.00;101410.19;5069654;28;20543;-74
2024/01/24 05:13:19;;;;;;;14.75;3.25;;;;;;;11.11;100.00;101433.75;5069614;28;20443;-74
2024/01/24 05:15:44;;;;;;;13.43;3.45;;;;;;;11.04;100.00;101427.50;5068308;28;20052;-74
2024/01/24 05:18:09;;;;;;;24.33;5.50;;;;;;;11.13;100.00;101437.91;5069543;28;20055;-74
2024/01/24 05:20:37;;;;;;;17.50;4.15;;;;;;;11.14;100.00;101439.56;5069600;28;20040;-75
2024/01/24 05:23:03;;;;;;;13.90;2.97;;;;;;;11.13;100.00;101413.88;5069395;28;20104;-74
2024/01/24 05:25:30;;;;;;;13.60;2.80;;;;;;;11.15;100.00;101451.88;5069499;28;20024;-74
2024/01/24 05:27:55;;;;;;;13.50;3.35;;;;;;;11.17;100.00;101457.84;5068131;28;20082;-74
2024/01/24 05:30:20;;;;;;;11.85;2.25;;;;;;;11.15;100.00;101454.53;5069469;28;20020;-75
2024/01/24 05:32:46;;;;;;;17.27;4.43;;;;;;;11.18;100.00;101442.66;5069336;28;20623;-74
2024/01/24 05:35:11;;;;;;;15.75;3.13;;;;;;;11.17;100.00;101415.16;5069414;28;20051;-75
2024/01/24 05:37:37;;;;;;;17.55;2.47;;;;;;;11.18;100.00;101413.28;5069167;28;20516;-75
2024/01/24 05:40:03;;;;;;;16.52;3.38;;;;;;;11.18;100.00;101416.78;5069220;28;20039;-74
2024/01/24 05:42:29;;;;;;;27.08;4.53;;;;;;;11.15;100.00;101435.84;5069206;28;20051;-74
2024/01/24 05:44:54;;;;;;;11.23;3.33;;;;;;;11.15;100.00;101421.69;5069200;28;20032;-74
2024/01/24 05:47:20;;;;;;;17.60;3.47;;;;;;;11.11;100.00;101452.44;5067909;28;20120;-75
2024/01/24 05:49:45;;;;;;;24.90;3.97;;;;;;;11.12;100.00;101440.75;5067905;28;20031;-74
2024/01/24 05:52:11;;;;;;;24.00;5.60;;;;;;;11.10;100.00;101448.94;5068950;28;20391;-75
2024/01/24 05:54:36;;;;;;;16.35;3.30;;;;;;;11.08;100.00;101431.44;5067808;28;20040;-74
2024/01/24 05:57:02;;;;;;;18.48;4.00;;;;;;;11.00;100.00;101450.22;5069040;28;20040;-75
2024/01/24 05:59:27;;;;;;;16.48;4.30;;;;;;;10.99;100.00;101443.25;5051055;28;20036;-74
2024/01/24 06:01:53;;;;;;;21.58;6.30;;;;;;;11.00;100.00;101453.72;5050677;28;20064;-74
2024/01/24 06:04:18;;;;;;;17.80;3.25;;;;;;;11.03;100.00;101479.22;5069052;28;20063;-74
2024/01/24 06:06:43;;;;;;;17.60;4.93;;;;;;;11.03;100.00;101493.41;5068757;28;20403;-74
2024/01/24 06:09:09;;;;;;;17.95;2.97;;;;;;;11.01;100.00;101497.28;5068837;28;20028;-75
2024/01/24 06:11:35;;;;;;;20.48;5.28;;;;;;;11.02;100.00;101510.41;5068758;28;20356;-74
2024/01/24 06:14:00;;;;;;;15.43;5.32;;;;;;;11.06;100.00;101521.59;5069027;28;20051;-74
2024/01/24 06:16:26;;;;;;;21.23;4.00;;;;;;;11.09;100.00;101516.69;5069035;28;20032;-75
2024/01/24 06:18:51;;;;;;;15.25;3.22;;;;;;;11.08;100.00;101528.41;5068802;28;20119;-74
2024/01/24 06:21:16;;;;;;;18.85;3.47;;;;;;;11.06;100.00;101538.41;5068857;28;20032;-74
2024/01/24 06:23:42;;;;;;;25.70;4.63;;;;;;;11.04;100.00;101543.09;5068696;28;20090;-74
2024/01/24 06:26:07;;;;;;;20.77;3.92;;;;;;;11.08;100.00;101560.44;5068978;28;20039;-74
2024/01/24 06:28:33;;;;;;;25.45;5.38;;;;;;;11.01;100.00;101548.00;5067064;28;20128;-74
2024/01/24 06:30:58;;;;;;;16.80;3.95;;;;;;;10.97;100.00;101563.53;5070973;28;20115;-74
2024/01/24 06:33:27;;;;;;;20.58;4.60;;;;;;;11.02;100.00;101554.97;5072411;28;20083;-74
2024/01/24 06:35:52;;;;;;;18.73;4.78;;;;;;;11.00;100.00;101597.03;5070806;28;20180;-74
2024/01/24 06:38:17;;;;;;;24.83;4.85;;;;;;;10.93;100.00;101594.28;5070833;28;20048;-73
2024/01/24 06:40:43;;;;;;;14.05;3.65;;;;;;;10.99;100.00;101614.06;5072091;28;20029;-74
2024/01/24 06:43:11;;;;;;;14.07;3.53;;;;;;;10.96;100.00;101609.91;5070880;28;20559;-74
2024/01/24 06:45:36;;;;;;;18.58;4.05;;;;;;;10.88;100.00;101615.34;5071991;28;20468;-74
2024/01/24 06:48:01;;;;;;;22.05;5.53;;;;;;;10.85;100.00;101621.84;5070825;28;20032;-74
2024/01/24 06:50:29;;;;;;;24.10;5.35;;;;;;;10.85;100.00;101624.53;5072091;28;20573;-74
2024/01/24 06:52:54;;;;;;;19.70;4.07;;;;;;;10.78;100.00;101609.41;5071972;28;20033;-74
2024/01/24 06:55:20;;;;;;;19.33;5.22;;;;;;;10.74;100.00;101633.78;5070556;28;20373;-74
2024/01/24 06:57:45;;;;;;;15.52;5.07;;;;;;;10.76;100.00;101660.28;5072141;28;20115;-73
2024/01/24 07:00:11;;;;;;;16.23;4.10;;;;;;;10.80;100.00;101666.91;5071879;28;20486;-74
2024/01/24 07:02:37;;;;;;;16.33;3.88;;;;;;;10.68;100.00;101660.34;5072019;28;20464;-74
2024/01/24 07:05:03;;;;;;;13.63;3.33;;;;;;;10.70;100.00;101669.81;5071791;28;20032;-74
2024/01/24 07:07:29;;;;;;;40.33;8.27;;;;;;;10.59;100.00;101662.22;5071686;28;20082;-74
2024/01/24 07:09:54;;;;;;;18.92;3.67;;;;;;;10.52;100.00;101647.94;5071568;28;20404;-74
2024/01/24 07:12:20;;;;;;;25.23;4.97;;;;;;;10.46;100.00;101652.13;5070292;28;20028;-73
2024/01/24 07:14:46;;;;;;;21.80;3.90;;;;;;;10.45;100.00;101694.97;5071754;28;20032;-73
2024/01/24 07:17:11;;;;;;;20.85;4.95;;;;;;;10.36;100.00;101682.69;5071682;28;20091;-73
2024/01/24 07:19:36;;;;;;;17.98;4.03;;;;;;;10.29;100.00;101666.56;5071418;28;20032;-73
2024/01/24 07:22:02;;;;;;;18.67;6.32;;;;;;;10.20;100.00;101672.91;5070294;28;20115;-75
2024/01/24 07:24:27;;;;;;;28.48;6.82;;;;;;;10.14;100.00;101679.78;5070197;28;20032;-73
2024/01/24 07:26:53;;;;;;;24.90;5.55;;;;;;;10.21;100.00;101691.38;5070043;28;20131;-73
2024/01/24 07:29:18;;;;;;;25.73;6.78;;;;;;;10.13;100.00;101688.75;5069982;28;20089;-73
2024/01/24 07:31:44;;;;;;;21.27;5.32;;;;;;;10.07;100.00;101689.47;5070881;28;20028;-73
2024/01/24 07:34:11;;;;;;;18.42;6.38;;;;;;;10.04;100.00;101706.63;5069091;28;20040;-73
2024/01/24 07:36:37;;;;;;;25.45;5.53;;;;;;;10.02;100.00;101716.63;5070094;28;20127;-74
2024/01/24 07:39:04;;;;;;;25.40;4.65;;;;;;;9.91;100.00;101706.34;5070361;28;20480;-73
2024/01/24 07:41:30;;;;;;;28.45;5.55;;;;;;;9.89;100.00;101687.03;5069409;28;20402;-73
2024/01/24 07:43:56;;;;;;;33.75;6.88;;;;;;;9.94;100.00;101706.00;5071010;28;20066;-73
2024/01/24 07:46:24;;;;;;;24.38;4.50;;;;;;;9.92;100.00;101708.00;5070949;28;20024;-73
2024/01/24 07:48:49;;;;;;;19.48;4.95;;;;;;;9.92;100.00;101713.31;5070935;28;20030;-73
2024/01/24 07:51:15;;;;;;;19.25;4.35;;;;;;;9.91;100.00;101733.00;5069730;28;20139;-73
2024/01/24 07:53:42;;;;;;;17.40;4.75;;;;;;;9.92;100.00;101715.16;5070252;28;20028;-73
2024/01/24 07:56:07;;;;;;;26.67;6.32;;;;;;;9.87;100.00;101729.81;5070701;28;20111;-73
2024/01/24 07:58:33;;;;;;;19.35;5.05;;;;;;;9.86;100.00;101741.47;5070860;28;20115;-73
2024/01/24 08:00:58;;;;;;;20.63;5.82;;;;;;;9.83;100.00;101746.34;5070626;28;20492;-73
2024/01/24 08:03:23;;;;;;;22.42;4.28;;;;;;;9.81;100.00;101729.69;5070664;28;20028;-71
2024/01/24 08:05:49;;;;;;;21.80;5.15;;;;;;;9.81;100.00;101745.66;5070363;28;20028;-72
2024/01/24 08:08:14;;;;;;;18.80;3.35;;;;;;;9.76;100.00;101753.31;5070441;28;20391;-73
2024/01/24 08:10:39;;;;;;;17.85;4.50;;;;;;;9.77;100.00;101742.50;5070283;28;20036;-72
2024/01/24 08:13:06;;;;;;;27.92;3.63;;;;;;;9.72;100.00;101738.66;5069027;28;20135;-72
2024/01/24 08:15:31;;;;;;;12.35;3.78;;;;;;;9.72;100.00;101752.84;5069579;28;20442;-72
2024/01/24 08:17:57;;;;;;;28.00;6.80;;;;;;;9.72;100.00;101763.50;5068277;28;20028;-72
2024/01/24 08:20:23;;;;;;;31.40;4.35;;;;;;;9.80;100.00;101782.13;5066316;28;20033;-71
2024/01/24 08:22:49;;;;;;;19.15;7.03;;;;;;;9.82;100.00;101779.28;5068123;28;20016;-71
2024/01/24 08:25:14;;;;;;;18.33;3.58;;;;;;;9.79;100.00;101787.63;5067990;28;20090;-72
2024/01/24 08:27:39;;;;;;;27.45;4.38;;;;;;;9.81;100.00;101786.44;5067856;28;20082;-72
2024/01/24 08:30:06;;;;;;;26.45;6.55;;;;;;;9.82;100.00;101800.59;5067419;28;20960;-70
2024/01/24 08:32:31;;;;;;;31.38;7.57;;;;;;;9.84;100.00;101793.28;5067661;28;20056;-72
2024/01/24 08:34:56;;;;;;;26.92;6.05;;;;;;;9.81;100.00;101802.44;5049504;28;20071;-71
2024/01/24 08:37:22;;;;;;;19.60;5.00;;;;;;;9.86;100.00;101807.28;5067436;28;20163;-70
2024/01/24 08:39:47;;;;;;;21.33;4.28;;;;;;;9.88;100.00;101806.09;5067687;28;20453;-70
2024/01/24 08:42:12;;;;;;;25.80;5.00;;;;;;;9.82;100.00;101814.78;5067338;28;20458;-72
2024/01/24 08:44:38;;;;;;;25.33;6.15;;;;;;;9.87;100.00;101825.72;5067714;28;20132;-71
2024/01/24 08:47:03;;;;;;;23.65;4.85;;;;;;;9.88;100.00;101821.25;5067551;28;20036;-71
2024/01/24 08:49:29;;;;;;;21.75;6.40;;;;;;;9.81;100.00;101830.91;5067634;28;20028;-72
2024/01/24 08:51:56;;;;;;;21.98;4.53;;;;;;;9.94;100.00;101841.91;5067256;28;20966;-71
2024/01/24 08:54:21;;;;;;;25.67;5.22;;;;;;;9.98;100.00;101850.38;5067583;28;20033;-71
2024/01/24 08:56:47;;;;;;;27.40;5.38;;;;;;;9.99;100.00;101852.88;5067430;28;20384;-72
2024/01/24 08:59:13;;;;;;;29.98;5.40;;;;;;;9.99;100.00;101836.91;5067053;28;20048;-70
2024/01/24 09:01:38;;;;;;;19.67;4.60;;;;;;;9.96;100.00;101831.09;5067042;28;20040;-71
2024/01/24 09:04:04;;;;;;;21.20;3.85;;;;;;;9.96;100.00;101820.44;5065770;28;20040;-70
2024/01/24 09:06:30;;;;;;;15.70;5.65;;;;;;;9.94;100.00;101851.72;5049435;28;20080;-70
2024/01/24 09:08:56;;;;;;;28.73;5.13;;;;;;;9.93;100.00;101874.03;5067293;28;20063;-70
2024/01/24 09:11:22;;;;;;;20.30;4.18;;;;;;;9.92;100.00;101875.88;5065690;28;20035;-70
2024/01/24 09:13:48;;;;;;;23.42;6.65;;;;;;;9.88;100.00;101879.88;5066669;28;20044;-70
2024/01/24 09:16:14;;;;;;;22.42;4.00;;;;;;;9.96;100.00;101882.53;5066977;28;20032;-71
2024/01/24 09:18:40;;;;;;;25.77;6.00;;;;;;;9.96;100.00;101869.22;5067171;28;20029;-71
2024/01/24 09:21:05;;;;;;;29.98;6.35;;;;;;;9.99;100.00;101863.53;5067137;28;20028;-71
2024/01/24 09:23:30;;;;;;;29.35;4.95;;;;;;;9.95;100.00;101866.72;5066914;28;20028;-72
2024/01/24 09:25:56;;;;;;;19.42;4.22;;;;;;;10.12;100.00;101886.19;5067371;28;20039;-71
2024/01/24 09:28:22;;;;;;;25.17;5.45;;;;;;;10.17;100.00;101894.53;5067339;28;20047;-72
2024/01/24 09:30:47;;;;;;;21.65;6.40;;;;;;;10.16;100.00;101907.00;5067230;28;20040;-71
2024/01/24 09:33:12;;;;;;;28.83;5.88;;;;;;;10.22;100.00;101897.53;5066883;28;20028;-74
2024/01/24 09:35:38;;;;;;;27.27;5.63;;;;;;;10.24;100.00;101925.69;5067040;28;20032;-71
2024/01/24 09:38:04;;;;;;;19.90;5.40;;;;;;;10.25;100.00;101945.19;5067099;28;20135;-71
2024/01/24 09:40:29;;;;;;;24.67;5.85;;;;;;;10.27;100.00;101940.47;5066813;28;20381;-71
2024/01/24 09:43:00;;;;;;;21.75;4.68;;;;;;;10.24;100.00;101947.00;5066731;28;20021;-71
2024/01/24 09:45:27;;;;;;;24.30;6.53;;;;;;;10.21;100.00;101959.81;5066576;28;20079;-72
2024/01/24 09:47:56;;;;;;;25.67;7.25;;;;;;;10.13;100.00;101949.16;5066921;28;20020;-72
2024/01/24 09:50:22;;;;;;;25.08;5.15;;;;;;;10.13;100.00;101939.34;5067138;28;20031;-71
2024/01/24 09:52:47;;;;;;;15.63;3.42;;;;;;;10.11;100.00;101925.31;5066892;28;20056;-72
2024/01/24 09:55:15;;;;;;;22.13;4.25;;;;;;;10.15;100.00;101932.00;5065618;28;20518;-72
2024/01/24 09:57:41;;;;;;;26.30;4.93;;;;;;;10.16;100.00;101947.00;5066524;28;20052;-72
2024/01/24 10:00:09;;;;;;;27.08;5.38;;;;;;;10.15;100.00;101947.19;5066985;28;20029;-71
2024/01/24 10:02:34;;;;;;;15.27;4.05;;;;;;;10.10;100.00;101956.50;5066672;28;20035;-72
2024/01/24 10:05:03;;;;;;;22.45;5.68;;;;;;;10.17;100.00;101967.34;5068980;28;20368;-71
2024/01/24 10:07:29;;;;;;;19.48;4.28;;;;;;;10.24;100.00;101995.00;5070401;28;20044;-72
2024/01/24 10:10:07;;;;;;;16.58;3.95;;;;;;;10.33;100.00;101993.19;5070277;28;20037;-71
2024/01/24 10:12:32;;;;;;;20.92;3.95;;;;;;;10.33;100.00;101989.69;5070376;28;20047;-72
2024/01/24 10:14:57;;;;;;;17.35;3.92;;;;;;;10.35;100.00;102001.00;5070527;28;20060;-71
2024/01/24 10:17:23;;;;;;;21.17;3.83;;;;;;;10.47;100.00;101983.69;5070660;28;20040;-71
2024/01/24 10:19:48;;;;;;;34.80;5.13;;;;;;;10.58;100.00;102018.00;5070781;28;20703;-72
2024/01/24 10:22:14;;;;;;;21.23;4.55;;;;;;;10.58;100.00;102017.19;5069809;28;20029;-72
2024/01/24 10:24:40;;;;;;;25.60;6.97;;;;;;;10.56;100.00;102008.50;5069189;28;20045;-71
2024/01/24 10:27:08;;;;;;;20.08;3.63;;;;;;;10.55;100.00;102009.53;5070209;28;20498;-71
2024/01/24 10:29:33;;;;;;;19.25;7.03;;;;;;;10.57;100.00;102002.19;5063541;28;20128;-72
2024/01/24 10:31:59;;;;;;;24.17;5.10;;;;;;;10.64;100.00;102011.19;5068265;28;20107;-74
2024/01/24 10:34:28;;;;;;;25.05;7.15;;;;;;;10.75;100.00;102026.84;5067519;28;20056;-73
2024/01/24 10:36:54;;;;;;;22.10;4.25;;;;;;;10.77;100.00;102015.97;5068707;28;20045;-72
2024/01/24 10:39:22;;;;;;;19.38;4.22;;;;;;;10.70;100.00;102022.00;5069841;28;20086;-72
2024/01/24 10:41:52;;;;;;;18.73;4.82;;;;;;;10.82;100.00;102033.19;5069950;28;20144;-72
2024/01/24 10:44:23;;;;;;;28.10;7.60;;;;;;;10.78;100.00;102042.50;5069974;28;20059;-71
2024/01/24 10:46:50;;;;;;;17.65;4.47;;;;;;;10.76;100.00;102039.19;5069614;28;20025;-71
2024/01/24 10:49:16;;;;;;;24.83;4.18;;;;;;;10.68;100.00;102017.84;5069870;28;20064;-72
2024/01/24 10:51:43;;;;;;;20.80;4.78;;;;;;;10.73;100.00;102042.19;5069456;28;20021;-72
2024/01/24 10:54:10;;;;;;;20.00;4.80;;;;;;;10.71;100.00;102042.34;5069884;28;20515;-72
2024/01/24 10:56:36;;;;;;;16.05;4.38;;;;;;;10.75;100.00;102057.03;5069454;28;20040;-71
2024/01/24 10:59:05;;;;;;;21.50;4.40;;;;;;;10.74;100.00;102044.69;5068124;28;20483;-72
2024/01/24 11:01:31;;;;;;;23.67;4.40;;;;;;;10.69;100.00;102070.22;5069571;28;20048;-71
2024/01/24 11:03:58;;;;;;;15.25;4.93;;;;;;;10.71;100.00;102065.53;5069383;28;20109;-71
2024/01/24 11:06:29;;;;;;;25.83;4.45;;;;;;;10.67;100.00;102074.88;5069645;28;20028;-72